ZBTJ/TSN METAR and TAF weather

Enter ICAO airport designator
Station Type Date Time Source
ZBTJ METAR 2019/04/25 09:30 UTC NOAA

ZBTJ 250930Z 32003MPS 290V360 CAVOK 15/M00 Q1015 NOSIG


Station Type Date Time Source
ZBTJ Decoded METAR 2019/04/25 09:30 UTC NOAA

Tianjin / Zhangguizhu, China (ZBTJ) 39-11N 117-21E
Apr 25, 2019 - 05:30 AM EDT / 2019.04.25 0930 UTC
Wind: from the NW (320 degrees) at 7 MPH (6 KT) (direction variable):0
Visibility: greater than 7 mile(s):0
Temperature: 59 F (15 C)
Dew Point: 32 F (0 C)
Relative Humidity: 35%
Pressure (altimeter): 29.97 in. Hg (1015 hPa)
ob: ZBTJ 250930Z 32003MPS 290V360 CAVOK 15/M00 Q1015 NOSIG
cycle: 9

Station Type Date Time Source
ZBTJ TAF 2019/04/25 06:06 UTC NOAA

TAF ZBTJ 250312Z 2506/2606 18004MPS 5000 BR NSC TX16/2506Z TN06/2521Z

Example: see airport list